createdAt,value
2023-02-06T00:01:54.719Z,10.35
2023-02-06T00:04:25.437Z,10.75
2023-02-06T00:06:52.155Z,11.85
2023-02-06T00:09:20.940Z,12.85
2023-02-06T00:11:49.741Z,11.80
2023-02-06T00:14:21.002Z,10.38
2023-02-06T00:16:48.632Z,9.35
2023-02-06T00:19:43.961Z,10.73
2023-02-06T00:22:13.625Z,9.45
2023-02-06T00:24:43.734Z,9.45
2023-02-06T00:27:10.310Z,15.05
2023-02-06T00:29:40.078Z,10.30
2023-02-06T00:32:12.000Z,13.52
2023-02-06T00:34:41.837Z,11.48
2023-02-06T00:37:08.538Z,12.35
2023-02-06T00:40:07.323Z,10.02
2023-02-06T00:42:35.826Z,10.98
2023-02-06T00:45:54.135Z,11.18
2023-02-06T00:48:24.533Z,10.27
2023-02-06T00:50:53.417Z,14.75
2023-02-06T00:53:20.642Z,18.65
2023-02-06T00:55:49.856Z,14.25
2023-02-06T00:58:17.770Z,12.13
2023-02-06T01:00:45.363Z,13.40
2023-02-06T01:03:14.343Z,11.35
2023-02-06T01:05:44.562Z,10.57
2023-02-06T01:08:12.695Z,10.40
2023-02-06T01:10:45.836Z,11.32
2023-02-06T01:13:13.539Z,10.77
2023-02-06T01:15:41.086Z,11.35
2023-02-06T01:18:11.154Z,11.45
2023-02-06T01:20:41.826Z,11.77
2023-02-06T01:23:11.972Z,14.25
2023-02-06T01:25:43.156Z,11.57
2023-02-06T01:28:11.711Z,11.68
2023-02-06T01:30:50.151Z,12.27
2023-02-06T01:33:17.796Z,12.07
2023-02-06T01:35:44.594Z,12.48
2023-02-06T01:38:13.744Z,11.45
2023-02-06T01:40:43.783Z,12.13
2023-02-06T01:43:17.451Z,11.70
2023-02-06T01:46:13.813Z,11.20
2023-02-06T01:48:53.187Z,12.27
2023-02-06T01:51:25.263Z,11.63
2023-02-06T01:53:57.749Z,11.35
2023-02-06T01:56:33.199Z,11.85
2023-02-06T01:59:05.550Z,12.27
2023-02-06T02:02:01.984Z,10.95
2023-02-06T02:04:32.431Z,13.20
2023-02-06T02:07:24.326Z,11.07
2023-02-06T02:09:52.568Z,13.27
2023-02-06T02:12:20.825Z,11.90
2023-02-06T02:14:50.343Z,13.07
2023-02-06T02:17:57.372Z,12.38
2023-02-06T02:20:39.103Z,13.15
2023-02-06T02:23:53.623Z,13.50
2023-02-06T02:26:58.319Z,14.15
2023-02-06T02:29:30.192Z,12.90
2023-02-06T02:32:22.360Z,13.95
2023-02-06T02:35:20.621Z,14.02
2023-02-06T02:38:07.608Z,13.90
2023-02-06T02:41:10.617Z,14.13
2023-02-06T02:43:49.731Z,12.65
2023-02-06T02:46:27.303Z,14.10
2023-02-06T02:49:10.512Z,12.25
2023-02-06T02:51:40.730Z,14.02
2023-02-06T02:54:11.025Z,12.50
2023-02-06T02:56:39.233Z,14.27
2023-02-06T02:59:14.450Z,13.77
2023-02-06T03:02:19.332Z,13.73
2023-02-06T03:04:54.382Z,14.60
2023-02-06T03:07:52.348Z,14.98
2023-02-06T03:10:52.893Z,14.65
2023-02-06T03:14:09.179Z,13.57
2023-02-06T03:16:49.301Z,14.43
2023-02-06T03:19:50.873Z,16.42
2023-02-06T03:22:20.660Z,13.93
2023-02-06T03:24:52.674Z,13.82
2023-02-06T03:27:24.382Z,13.77
2023-02-06T03:29:54.102Z,14.65
2023-02-06T03:32:34.552Z,14.63
2023-02-06T03:35:15.790Z,14.38
2023-02-06T03:37:49.152Z,13.27
2023-02-06T03:40:18.399Z,14.55
2023-02-06T03:42:50.984Z,13.75
2023-02-06T03:45:30.318Z,14.25
2023-02-06T03:48:27.934Z,13.38
2023-02-06T03:51:01.879Z,13.25
2023-02-06T03:53:33.493Z,14.10
2023-02-06T03:56:13.353Z,14.77
2023-02-06T03:58:40.389Z,15.50
2023-02-06T04:01:13.443Z,14.48
2023-02-06T04:03:40.951Z,14.32
2023-02-06T04:06:08.648Z,14.32
2023-02-06T04:08:36.517Z,15.23
2023-02-06T04:11:05.525Z,14.07
2023-02-06T04:13:36.185Z,13.88
2023-02-06T04:16:08.614Z,15.52
2023-02-06T04:18:43.941Z,15.15
2023-02-06T04:21:14.964Z,15.25
2023-02-06T04:23:41.978Z,14.02
2023-02-06T04:26:10.288Z,14.68
2023-02-06T04:28:38.227Z,14.63
2023-02-06T04:31:06.111Z,13.75
2023-02-06T04:33:39.209Z,15.15
2023-02-06T04:36:39.094Z,15.65
2023-02-06T04:39:07.752Z,14.82
2023-02-06T04:41:38.009Z,14.77
2023-02-06T04:44:08.749Z,15.15
2023-02-06T04:47:04.789Z,14.63
2023-02-06T04:49:31.447Z,14.90
2023-02-06T04:52:02.085Z,13.45
2023-02-06T04:54:29.778Z,13.25
2023-02-06T04:56:59.082Z,14.70
2023-02-06T04:59:30.559Z,14.18
2023-02-06T05:01:59.316Z,15.60
2023-02-06T05:04:30.424Z,13.77
2023-02-06T05:06:57.154Z,14.43
2023-02-06T05:09:26.072Z,14.70
2023-02-06T05:11:55.322Z,14.10
2023-02-06T05:14:25.099Z,14.25
2023-02-06T05:16:54.953Z,14.02
2023-02-06T05:19:22.521Z,13.88
2023-02-06T05:21:49.307Z,14.13
2023-02-06T05:24:19.089Z,13.82
2023-02-06T05:26:46.741Z,13.82
2023-02-06T05:29:13.507Z,14.15
2023-02-06T05:31:40.337Z,13.40
2023-02-06T05:34:09.291Z,13.07
2023-02-06T05:36:39.760Z,12.82
2023-02-06T05:39:06.454Z,13.43
2023-02-06T05:41:33.227Z,12.70
2023-02-06T05:44:00.452Z,12.77
2023-02-06T05:46:31.552Z,13.02
2023-02-06T05:49:03.307Z,13.73
2023-02-06T05:51:32.866Z,13.33
2023-02-06T05:54:02.410Z,13.68
2023-02-06T05:56:31.336Z,13.30
2023-02-06T05:58:58.907Z,13.73
2023-02-06T06:01:28.446Z,13.93
2023-02-06T06:04:47.081Z,13.88
2023-02-06T06:07:18.731Z,13.27
2023-02-06T06:09:48.614Z,12.80
2023-02-06T06:12:15.234Z,13.77
2023-02-06T06:14:41.967Z,14.60
2023-02-06T06:17:08.950Z,14.10
2023-02-06T06:19:35.604Z,13.68
2023-02-06T06:22:02.290Z,13.55
2023-02-06T06:24:28.961Z,12.45
2023-02-06T06:26:55.629Z,13.70
2023-02-06T06:29:24.669Z,13.40
2023-02-06T06:31:55.567Z,13.65
2023-02-06T06:34:26.700Z,12.50
2023-02-06T06:36:53.729Z,12.45
2023-02-06T06:39:22.698Z,13.40
2023-02-06T06:41:53.567Z,13.65
2023-02-06T06:44:23.481Z,13.25
2023-02-06T06:46:52.292Z,14.57
2023-02-06T06:49:21.104Z,13.88
2023-02-06T06:51:52.479Z,14.45
2023-02-06T06:54:19.274Z,15.35
2023-02-06T06:56:53.801Z,15.80
2023-02-06T06:59:24.083Z,16.77
2023-02-06T07:01:55.380Z,18.67
2023-02-06T07:04:28.690Z,15.80
2023-02-06T07:06:59.377Z,15.77
2023-02-06T07:09:26.108Z,14.82
2023-02-06T07:12:17.859Z,15.05
2023-02-06T07:14:44.578Z,16.00
2023-02-06T07:17:15.789Z,15.45
2023-02-06T07:19:47.377Z,15.10
2023-02-06T07:22:42.854Z,14.95
2023-02-06T07:25:11.931Z,14.75
2023-02-06T07:33:59.351Z,13.98
2023-02-06T07:36:30.366Z,13.70
2023-02-06T07:38:57.880Z,14.40
2023-02-06T07:41:24.474Z,14.90
2023-02-06T07:43:54.281Z,13.93
2023-02-06T07:46:25.760Z,13.07
2023-02-06T07:48:52.809Z,14.45
2023-02-06T07:51:22.454Z,14.20
2023-02-06T07:53:51.372Z,15.45
2023-02-06T07:56:20.238Z,14.65
2023-02-06T07:58:52.795Z,15.95
2023-02-06T08:01:22.866Z,17.15
2023-02-06T08:03:53.284Z,17.25
2023-02-06T08:06:24.208Z,16.08
2023-02-06T08:08:56.411Z,21.20
2023-02-06T08:11:29.324Z,15.45
2023-02-06T08:14:00.283Z,14.55
2023-02-06T08:16:27.097Z,13.45
2023-02-06T08:18:53.820Z,13.20
2023-02-06T08:21:24.653Z,14.55
2023-02-06T08:23:59.924Z,13.43
2023-02-06T08:26:28.643Z,14.18
2023-02-06T08:28:58.156Z,13.27
2023-02-06T08:31:35.099Z,13.57
2023-02-06T08:34:05.345Z,13.82
2023-02-06T08:36:32.868Z,13.50
2023-02-06T08:39:00.718Z,13.30
2023-02-06T08:41:36.312Z,13.55
2023-02-06T08:44:05.539Z,14.30
2023-02-06T08:46:32.762Z,13.38
2023-02-06T08:49:05.833Z,13.95
2023-02-06T08:51:35.000Z,13.05
2023-02-06T08:54:36.004Z,14.23
2023-02-06T08:57:19.496Z,12.60
2023-02-06T08:59:48.939Z,12.23
2023-02-06T09:02:18.171Z,13.15
2023-02-06T09:04:48.484Z,14.52
2023-02-06T09:07:17.276Z,13.57
2023-02-06T09:09:44.022Z,13.77
2023-02-06T09:12:11.313Z,11.98
2023-02-06T09:14:40.535Z,12.90
2023-02-06T09:17:08.642Z,12.60
2023-02-06T09:19:37.989Z,12.13
2023-02-06T09:22:07.187Z,11.38
2023-02-06T09:24:43.123Z,11.25
2023-02-06T09:27:09.937Z,10.63
2023-02-06T09:29:40.275Z,8.73
2023-02-06T09:32:58.840Z,10.52
2023-02-06T09:35:33.201Z,8.60
2023-02-06T09:40:32.212Z,8.70
2023-02-06T09:43:00.940Z,12.38
2023-02-06T09:45:29.397Z,8.00
2023-02-06T09:48:04.026Z,7.72
2023-02-06T09:51:01.981Z,7.68
2023-02-06T09:53:37.336Z,5.88
2023-02-06T09:56:32.148Z,5.15
2023-02-06T09:59:40.050Z,5.45
2023-02-06T10:02:17.749Z,6.30
2023-02-06T10:05:13.429Z,5.88
2023-02-06T10:08:01.247Z,6.65
2023-02-06T10:10:39.430Z,5.93
2023-02-06T10:13:41.673Z,5.90
2023-02-06T10:16:33.360Z,5.30
2023-02-06T10:19:20.702Z,4.97
2023-02-06T10:22:00.041Z,5.30
2023-02-06T10:24:39.018Z,4.78
2023-02-06T10:27:14.925Z,4.85
2023-02-06T10:29:45.953Z,4.93
2023-02-06T10:32:40.865Z,4.72
2023-02-06T10:35:22.877Z,4.15
2023-02-06T10:38:02.213Z,4.80
2023-02-06T10:40:47.756Z,4.47
2023-02-06T10:43:26.030Z,5.57
2023-02-06T10:46:48.651Z,7.65
2023-02-06T10:49:36.102Z,5.60
2023-02-06T10:52:27.909Z,5.43
2023-02-06T10:55:02.631Z,6.20
2023-02-06T10:57:34.016Z,4.72
2023-02-06T11:00:04.514Z,4.78
2023-02-06T11:02:47.486Z,4.97
2023-02-06T11:05:23.624Z,3.90
2023-02-06T11:08:15.444Z,4.53
2023-02-06T11:10:45.700Z,5.43
2023-02-06T11:13:34.307Z,4.15
2023-02-06T11:16:14.063Z,3.63
2023-02-06T11:18:48.834Z,3.80
2023-02-06T11:24:35.074Z,3.05
2023-02-06T11:27:12.031Z,3.75
2023-02-06T11:29:51.873Z,4.25
2023-02-06T11:32:58.869Z,4.60
2023-02-06T11:35:48.917Z,5.07
2023-02-06T11:38:20.299Z,5.85
2023-02-06T11:41:21.468Z,7.05
2023-02-06T11:43:50.636Z,6.22
2023-02-06T11:46:36.021Z,6.60
2023-02-06T11:49:25.083Z,7.35
2023-02-06T11:52:00.242Z,6.28
2023-02-06T11:54:38.733Z,7.22
2023-02-06T11:57:26.061Z,6.65
2023-02-06T11:59:57.084Z,7.72
2023-02-06T12:02:37.050Z,5.80
2023-02-06T12:05:29.784Z,6.93
2023-02-06T12:08:12.143Z,5.25
2023-02-06T12:11:12.357Z,5.10
2023-02-06T12:13:46.510Z,5.05
2023-02-06T12:16:15.941Z,5.68
2023-02-06T12:18:48.679Z,5.68
2023-02-06T12:24:43.598Z,5.13
2023-02-06T12:27:34.413Z,4.40
2023-02-06T12:30:33.340Z,5.25
2023-02-06T12:33:11.916Z,5.07
2023-02-06T12:35:44.270Z,4.40
2023-02-06T12:38:30.662Z,5.45
2023-02-06T12:41:34.723Z,5.05
2023-02-06T12:44:05.276Z,5.30
2023-02-06T12:46:36.085Z,4.95
2023-02-06T12:49:54.247Z,4.45
2023-02-06T12:52:27.226Z,3.92
2023-02-06T12:55:05.560Z,4.13
2023-02-06T12:57:36.407Z,3.72
2023-02-06T13:00:04.685Z,3.63
2023-02-06T13:03:17.245Z,3.35
2023-02-06T13:06:11.980Z,4.18
2023-02-06T13:09:00.111Z,3.47
2023-02-06T13:11:39.980Z,3.42
2023-02-06T13:14:12.469Z,3.33
2023-02-06T13:16:45.278Z,4.18
2023-02-06T13:19:25.551Z,3.75
2023-02-06T13:22:20.519Z,4.47
2023-02-06T13:25:00.807Z,3.30
2023-02-06T13:27:40.090Z,3.15
2023-02-06T13:30:28.372Z,3.17
2023-02-06T13:33:19.459Z,3.20
2023-02-06T13:35:55.272Z,3.15
2023-02-06T13:38:38.858Z,2.92
2023-02-06T13:41:38.241Z,3.72
2023-02-06T13:44:29.978Z,3.10
2023-02-06T13:47:07.275Z,3.90
2023-02-06T13:50:04.708Z,2.70
2023-02-06T13:53:00.386Z,2.67
2023-02-06T13:55:53.282Z,3.13
2023-02-06T13:58:47.130Z,2.70
2023-02-06T14:01:20.042Z,2.40
2023-02-06T14:22:22.372Z,3.20
2023-02-06T14:25:28.419Z,3.08
2023-02-06T14:28:10.808Z,4.18
2023-02-06T14:30:59.484Z,3.60
2023-02-06T14:33:42.102Z,2.90
2023-02-06T14:36:52.510Z,3.80
2023-02-06T14:40:13.545Z,3.13
2023-02-06T14:42:46.734Z,3.17
2023-02-06T14:45:33.868Z,3.30
2023-02-06T14:48:29.086Z,2.80
2023-02-06T14:50:59.322Z,3.13
2023-02-06T14:53:37.341Z,3.10
2023-02-06T14:56:13.478Z,3.70
2023-02-06T14:58:45.559Z,3.38
2023-02-06T15:01:18.454Z,2.92
2023-02-06T15:06:32.956Z,3.00
2023-02-06T15:09:00.624Z,2.65
2023-02-06T15:11:32.990Z,3.05
2023-02-06T15:14:23.459Z,4.65
2023-02-06T15:16:51.119Z,5.53
2023-02-06T15:19:24.543Z,6.28
2023-02-06T15:22:09.438Z,3.92
2023-02-06T15:25:03.835Z,4.03
2023-02-06T15:27:38.102Z,3.83
2023-02-06T15:30:38.342Z,12.45
2023-02-06T15:33:10.350Z,4.72
2023-02-06T15:35:47.718Z,2.83
2023-02-06T15:38:15.997Z,3.00
2023-02-06T15:40:48.514Z,5.40
2023-02-06T15:43:21.441Z,4.55
2023-02-06T15:45:50.444Z,4.90
2023-02-06T15:48:20.508Z,3.92
2023-02-06T15:51:17.083Z,4.60
2023-02-06T15:53:48.663Z,4.35
2023-02-06T15:56:31.033Z,4.47
2023-02-06T15:59:19.672Z,6.25
2023-02-06T16:01:47.518Z,3.97
2023-02-06T16:04:23.434Z,3.25
2023-02-06T16:07:19.155Z,4.43
2023-02-06T16:09:53.830Z,3.38
2023-02-06T16:12:24.397Z,3.58
2023-02-06T16:14:55.554Z,3.17
2023-02-06T16:17:39.322Z,3.53
2023-02-06T16:20:31.496Z,3.42
2023-02-06T16:23:17.617Z,4.20
2023-02-06T16:26:06.734Z,4.13
2023-02-06T16:28:56.141Z,4.53
2023-02-06T16:31:51.663Z,4.82
2023-02-06T16:34:38.286Z,8.30
2023-02-06T16:37:13.827Z,29.05
2023-02-06T16:39:41.831Z,37.13
2023-02-06T16:42:25.726Z,5.55
2023-02-06T16:44:58.698Z,5.82
2023-02-06T16:47:26.332Z,7.20
2023-02-06T16:49:59.635Z,5.18
2023-02-06T16:52:32.517Z,5.70
2023-02-06T16:55:03.042Z,11.65
2023-02-06T16:57:32.317Z,10.73
2023-02-06T17:00:01.438Z,12.45
2023-02-06T17:02:32.375Z,11.40
2023-02-06T17:05:01.428Z,10.15
2023-02-06T17:07:34.416Z,10.50
2023-02-06T17:10:09.160Z,8.77
2023-02-06T17:13:03.753Z,7.32
2023-02-06T17:15:31.720Z,4.93
2023-02-06T17:18:00.202Z,4.05
2023-02-06T17:20:34.980Z,3.75
2023-02-06T17:23:06.087Z,3.20
2023-02-06T17:25:33.148Z,3.67
2023-02-06T17:28:03.575Z,4.00
2023-02-06T17:30:30.625Z,3.45
2023-02-06T17:32:57.475Z,3.45
2023-02-06T17:35:24.590Z,2.75
2023-02-06T17:37:56.309Z,3.28
2023-02-06T17:40:28.886Z,3.78
2023-02-06T17:42:59.184Z,3.03
2023-02-06T17:45:26.595Z,3.33
2023-02-06T17:47:57.349Z,4.40
2023-02-06T17:50:27.272Z,4.05
2023-02-06T17:53:21.928Z,3.83
2023-02-06T17:55:55.350Z,4.45
2023-02-06T17:58:27.355Z,5.07
2023-02-06T18:00:56.274Z,3.95
2023-02-06T18:04:26.618Z,4.72
2023-02-06T18:06:58.575Z,22.17
2023-02-06T18:09:25.419Z,10.93
2023-02-06T18:12:23.929Z,17.42
2023-02-06T18:14:50.957Z,26.80
2023-02-06T18:17:23.848Z,15.88
2023-02-06T18:19:52.600Z,6.60
2023-02-06T18:22:49.891Z,3.22
2023-02-06T18:25:17.897Z,2.80
2023-02-06T18:27:50.345Z,2.17
2023-02-06T18:30:18.736Z,2.00
2023-02-06T18:32:49.329Z,2.55
2023-02-06T18:35:19.136Z,2.80
2023-02-06T18:37:46.294Z,2.53
2023-02-06T18:40:15.708Z,2.50
2023-02-06T18:43:09.879Z,2.40
2023-02-06T18:45:40.041Z,3.47
2023-02-06T18:51:10.238Z,4.45
2023-02-06T18:53:41.858Z,5.25
2023-02-06T18:57:01.154Z,6.20
2023-02-06T18:59:28.452Z,4.90
2023-02-06T19:01:55.464Z,6.13
2023-02-06T19:04:28.721Z,7.57
2023-02-06T19:06:56.808Z,8.00
2023-02-06T19:09:27.279Z,6.30
2023-02-06T19:11:54.043Z,6.10
2023-02-06T19:14:26.440Z,5.00
2023-02-06T19:16:57.726Z,4.25
2023-02-06T19:19:28.298Z,4.45
2023-02-06T19:21:55.823Z,4.78
2023-02-06T19:24:27.493Z,6.30
2023-02-06T19:26:58.132Z,4.95
2023-02-06T19:29:54.025Z,5.03
2023-02-06T19:32:21.740Z,4.90
2023-02-06T19:34:54.765Z,4.22
2023-02-06T19:37:22.838Z,5.30
2023-02-06T19:39:53.330Z,5.25
2023-02-06T19:42:20.134Z,4.15
2023-02-06T19:44:54.160Z,4.72
2023-02-06T19:47:28.530Z,5.57
2023-02-06T19:50:48.726Z,59.25
2023-02-06T19:53:17.004Z,29.92
2023-02-06T19:55:48.081Z,27.60
2023-02-06T19:58:18.737Z,7.60
2023-02-06T20:00:49.122Z,4.93
2023-02-06T20:03:16.370Z,3.70
2023-02-06T20:05:46.767Z,4.60
2023-02-06T20:08:13.795Z,3.17
2023-02-06T20:11:10.756Z,2.58
2023-02-06T20:13:40.059Z,2.60
2023-02-06T20:16:20.809Z,3.20
2023-02-06T20:18:47.600Z,3.10
2023-02-06T20:21:31.242Z,3.67
2023-02-06T20:24:01.182Z,2.80
2023-02-06T20:26:32.254Z,3.10
2023-02-06T20:28:59.447Z,3.33
2023-02-06T20:31:27.997Z,3.50
2023-02-06T20:33:56.907Z,3.10
2023-02-06T20:36:32.577Z,3.10
2023-02-06T20:39:26.197Z,3.33
2023-02-06T20:45:15.866Z,2.78
2023-02-06T20:48:10.088Z,3.17
2023-02-06T20:50:38.609Z,2.60
2023-02-06T20:53:09.490Z,2.45
2023-02-06T20:55:41.198Z,3.05
2023-02-06T20:58:08.416Z,2.92
2023-02-06T21:00:35.325Z,2.45
2023-02-06T21:03:02.026Z,2.38
2023-02-06T21:05:32.627Z,2.60
2023-02-06T21:08:03.702Z,2.72
2023-02-06T21:10:34.655Z,2.10
2023-02-06T21:13:02.950Z,2.35
2023-02-06T21:15:59.412Z,3.83
2023-02-06T21:18:30.935Z,2.97
2023-02-06T21:21:12.709Z,4.60
2023-02-06T21:23:49.693Z,2.35
2023-02-06T21:26:17.548Z,2.30
2023-02-06T21:28:45.775Z,2.00
2023-02-06T21:31:40.426Z,1.92
2023-02-06T21:34:20.542Z,2.50
2023-02-06T21:36:50.608Z,2.70
2023-02-06T21:39:20.567Z,2.85
2023-02-06T21:41:53.906Z,2.17
2023-02-06T21:44:25.912Z,2.58
2023-02-06T21:47:21.224Z,2.80
2023-02-06T21:49:50.550Z,2.63
2023-02-06T21:52:20.667Z,2.95
2023-02-06T21:54:47.345Z,2.67
2023-02-06T21:57:20.171Z,2.83
2023-02-06T21:59:49.191Z,2.95
2023-02-06T22:02:18.930Z,2.88
2023-02-06T22:04:45.697Z,2.60
2023-02-06T22:07:17.455Z,2.83
2023-02-06T22:09:46.764Z,3.33
2023-02-06T22:12:16.572Z,2.47
2023-02-06T22:15:16.859Z,2.80
2023-02-06T22:17:44.952Z,2.70
2023-02-06T22:20:41.179Z,2.70
2023-02-06T22:23:14.147Z,3.00
2023-02-06T22:25:47.569Z,3.20
2023-02-06T22:28:14.307Z,2.72
2023-02-06T22:30:48.305Z,2.88
2023-02-06T22:33:16.030Z,4.70
2023-02-06T22:36:14.568Z,3.28
2023-02-06T22:38:47.668Z,3.30
2023-02-06T22:46:05.008Z,3.47
2023-02-06T22:48:33.247Z,3.33
2023-02-06T22:51:12.110Z,3.70
2023-02-06T22:53:40.270Z,3.63
2023-02-06T22:56:31.031Z,3.28
2023-02-06T22:59:26.384Z,2.85
2023-02-06T23:01:57.291Z,3.42
2023-02-06T23:04:34.035Z,3.90
2023-02-06T23:07:01.408Z,3.67
2023-02-06T23:09:32.293Z,3.13
2023-02-06T23:12:04.081Z,3.30
2023-02-06T23:14:34.665Z,3.30
2023-02-06T23:19:31.767Z,3.85
2023-02-06T23:21:59.958Z,3.72
2023-02-06T23:24:27.673Z,3.97
2023-02-06T23:26:54.409Z,3.35
2023-02-06T23:29:23.147Z,3.45
2023-02-06T23:31:53.267Z,3.78
2023-02-06T23:34:23.874Z,3.35
2023-02-06T23:36:53.528Z,3.95
2023-02-06T23:39:23.857Z,3.92
2023-02-06T23:42:00.953Z,3.20
2023-02-06T23:44:29.962Z,4.22
2023-02-06T23:46:57.842Z,8.65
2023-02-06T23:49:29.925Z,12.93
2023-02-06T23:52:06.973Z,9.55
2023-02-06T23:54:39.716Z,5.15
2023-02-06T23:57:07.917Z,3.78
